Standing Rock Reservation, South Dakota
Current Conditions -  °F | °C
As of 6:52 AM on Thursday 30 Oct 2014 (Local Time) from KMBG Reporting Station
Clear Clear  
Wind Chill: 30°   Ceiling: Unl
Heat Index: 39°   Visibility: 10mi
Dew Point: 35°   Wind: 18mph
Humidity: 86%   Direction: 330°NNW
Pressure: 30.13"   Gusts: NA
Location:  45.0005°N, 101.234°W
Report Text: KMBG 301252Z AUTO 33016KT 10SM CLR 04/02 A3013 RMK AO2 SLP214 T00390017
Loading
Personal Weather Stations






























Interactive Weather Map
Tropical Storm Tracking
New forecast layout! Learn more

10-Day Weather Forecast

Advertisements
Track Severe Weather on mobile